Time;durP1;ratioP1;P1;durP2;ratioP2;P2;SDS_P1;SDS_P2;PMS_P1;PMS_P2;Temp;Humidity;BMP_temperature;BMP_pressure;BME280_temperature;BME280_humidity;BME280_pressure;Samples;Min_cycle;Max_cycle;Signal;HPM_P1;HPM_P2
2022/04/08 00:00:54;;;;;;;54.42;42.47;;;25.20;89.00;;;;;;4205740;28;20498;-73
2022/04/08 00:03:01;;;;;;;51.05;42.13;;;25.20;89.50;;;;;;4204411;28;20390;-72
2022/04/08 00:05:09;;;;;;;53.47;45.60;;;25.20;89.80;;;;;;4207608;28;20135;-73
2022/04/08 00:07:14;;;;;;;57.28;45.83;;;25.10;90.20;;;;;;4205780;28;20055;-72
2022/04/08 00:09:20;;;;;;;57.75;44.42;;;24.90;90.40;;;;;;4171313;28;20144;-73
2022/04/08 00:11:27;;;;;;;62.28;46.58;;;25.00;90.40;;;;;;4205504;28;20123;-71
2022/04/08 00:13:32;;;;;;;54.08;44.40;;;25.00;90.50;;;;;;4208143;28;20037;-72
2022/04/08 00:15:38;;;;;;;58.05;45.40;;;25.00;90.50;;;;;;4211710;28;20044;-74
2022/04/08 00:17:45;;;;;;;60.85;46.08;;;24.90;90.70;;;;;;4200206;28;20032;-74
2022/04/08 00:19:50;;;;;;;54.97;45.22;;;24.80;90.80;;;;;;4210340;28;20040;-73
2022/04/08 00:21:57;;;;;;;54.92;44.70;;;24.90;90.90;;;;;;4211347;28;20093;-74
2022/04/08 00:24:04;;;;;;;53.90;46.42;;;25.00;90.70;;;;;;4211545;28;20089;-74
2022/04/08 00:26:10;;;;;;;55.78;46.25;;;25.10;90.50;;;;;;4209874;28;20843;-74
2022/04/08 00:28:15;;;;;;;57.75;46.97;;;25.20;90.50;;;;;;4201825;28;20050;-75
2022/04/08 00:30:22;;;;;;;59.97;45.63;;;25.30;90.40;;;;;;4203074;28;20415;-73
2022/04/08 00:32:27;;;;;;;57.47;47.45;;;25.10;90.50;;;;;;4205626;28;20044;-75
2022/04/08 00:34:33;;;;;;;53.83;45.70;;;25.10;90.50;;;;;;4205826;28;20048;-75
2022/04/08 00:36:40;;;;;;;58.15;46.67;;;25.10;90.70;;;;;;4207090;28;20075;-74
2022/04/08 00:38:44;;;;;;;68.40;47.00;;;25.30;90.60;;;;;;4203317;28;20754;-74
2022/04/08 00:40:51;;;;;;;58.22;46.67;;;25.40;90.50;;;;;;4211881;28;20032;-74
2022/04/08 00:43:09;;;;;;;59.95;48.92;;;25.60;90.30;;;;;;4211473;28;20044;-74
2022/04/08 00:45:14;;;;;;;59.60;46.63;;;25.50;90.20;;;;;;4209124;28;20038;-72
2022/04/08 00:47:21;;;;;;;56.03;47.97;;;25.40;90.30;;;;;;4211777;28;20050;-71
2022/04/08 00:49:27;;;;;;;55.58;47.08;;;25.40;90.10;;;;;;4210131;28;20048;-72
2022/04/08 00:51:34;;;;;;;75.82;48.50;;;25.50;90.10;;;;;;4211374;28;20159;-67
2022/04/08 00:53:41;;;;;;;63.67;45.88;;;25.60;90.10;;;;;;4175702;28;20309;-70
2022/04/08 00:55:48;;;;;;;54.65;45.55;;;25.60;90.20;;;;;;4206647;28;20526;-71
2022/04/08 00:57:53;;;;;;;56.38;44.60;;;25.70;90.00;;;;;;4209276;28;20048;-72
2022/04/08 01:00:07;;;;;;;55.60;45.45;;;25.90;89.60;;;;;;4209024;28;20046;-71
2022/04/08 01:02:14;;;;;;;52.13;43.90;;;26.00;89.50;;;;;;4209351;28;20272;-71
2022/04/08 01:04:21;;;;;;;60.38;46.30;;;25.90;89.50;;;;;;4209824;28;20093;-71
2022/04/08 01:06:27;;;;;;;51.78;44.60;;;25.70;90.00;;;;;;4209205;28;20078;-73
2022/04/08 01:08:35;;;;;;;53.05;44.95;;;25.80;89.80;;;;;;4210056;28;20052;-73
2022/04/08 01:10:40;;;;;;;55.42;45.05;;;26.00;89.00;;;;;;4209002;28;20047;-72
2022/04/08 01:12:45;;;;;;;56.55;43.30;;;26.10;88.70;;;;;;4208906;28;20081;-71
2022/04/08 01:14:57;;;;;;;52.67;42.67;;;26.20;88.20;;;;;;4209952;28;20497;-72
2022/04/08 01:17:03;;;;;;;52.10;42.83;;;25.90;88.00;;;;;;4193570;28;20041;-72
2022/04/08 01:19:08;;;;;;;50.47;42.95;;;25.90;88.70;;;;;;4210993;28;20032;-73
2022/04/08 01:21:15;;;;;;;49.90;41.47;;;26.00;87.70;;;;;;4209759;28;20736;-71
2022/04/08 01:23:20;;;;;;;47.88;41.17;;;26.10;86.90;;;;;;4211591;28;20032;-69
2022/04/08 01:25:28;;;;;;;50.17;40.80;;;26.00;86.20;;;;;;4207556;28;20093;-72
2022/04/08 01:27:35;;;;;;;47.13;40.72;;;26.00;86.70;;;;;;4211230;28;20101;-72
2022/04/08 01:29:40;;;;;;;47.33;39.80;;;26.20;86.20;;;;;;4211813;28;21087;-71
2022/04/08 01:31:45;;;;;;;44.50;38.97;;;26.30;86.00;;;;;;4211363;28;20536;-72
2022/04/08 01:33:52;;;;;;;47.97;38.83;;;26.40;85.40;;;;;;4209121;28;20506;-73
2022/04/08 01:35:57;;;;;;;50.80;40.83;;;26.40;85.70;;;;;;4210796;28;20044;-72
2022/04/08 01:38:07;;;;;;;48.50;38.95;;;26.50;84.10;;;;;;4210209;28;20089;-71
2022/04/08 01:40:14;;;;;;;43.17;37.15;;;26.40;83.60;;;;;;4209122;28;20040;-72
2022/04/08 01:42:23;;;;;;;44.80;37.47;;;26.50;84.00;;;;;;4211642;28;20248;-71
2022/04/08 01:44:32;;;;;;;47.40;36.95;;;26.60;83.90;;;;;;4208486;28;20154;-71
2022/04/08 01:46:39;;;;;;;50.80;39.20;;;26.60;83.90;;;;;;4209226;28;20048;-71
2022/04/08 01:48:44;;;;;;;46.78;37.55;;;26.70;84.10;;;;;;4209456;28;20082;-69
2022/04/08 01:50:51;;;;;;;46.03;35.83;;;26.80;83.90;;;;;;4176186;28;20102;-72
2022/04/08 01:52:59;;;;;;;47.03;36.72;;;26.90;83.50;;;;;;4206443;28;20115;-73
2022/04/08 01:55:05;;;;;;;43.28;37.75;;;27.00;83.50;;;;;;4206362;28;20517;-71
2022/04/08 01:57:12;;;;;;;45.67;36.33;;;27.10;83.70;;;;;;4209840;28;20490;-71
2022/04/08 01:59:19;;;;;;;41.63;35.75;;;27.00;81.50;;;;;;4209705;28;20093;-70
2022/04/08 02:01:24;;;;;;;44.88;33.72;;;26.80;81.50;;;;;;4210982;28;20067;-71
2022/04/08 02:03:32;;;;;;;40.90;31.15;;;26.90;81.90;;;;;;4209940;28;20056;-71
2022/04/08 02:05:39;;;;;;;39.45;31.60;;;27.00;78.30;;;;;;4205873;28;20130;-69
2022/04/08 02:07:45;;;;;;;41.67;33.00;;;27.00;78.90;;;;;;4209321;28;20044;-72
2022/04/08 02:09:51;;;;;;;40.03;31.70;;;27.20;79.80;;;;;;4207549;28;20048;-69
2022/04/08 02:11:58;;;;;;;35.08;31.02;;;27.30;80.00;;;;;;4211257;28;20052;-70
2022/04/08 02:14:03;;;;;;;39.47;31.02;;;27.40;77.80;;;;;;4211016;28;20059;-71
2022/04/08 02:16:10;;;;;;;39.25;31.20;;;27.30;77.80;;;;;;4181574;28;20053;-72
2022/04/08 02:18:18;;;;;;;39.08;29.98;;;27.40;77.40;;;;;;4210832;28;20459;-70
2022/04/08 02:20:26;;;;;;;34.58;28.20;;;27.40;76.60;;;;;;4193645;28;20045;-71
2022/04/08 02:22:37;;;;;;;34.38;28.40;;;27.40;74.30;;;;;;4189997;28;20143;-70
2022/04/08 02:24:46;;;;;;;33.05;27.27;;;27.40;75.80;;;;;;4209200;28;20039;-71
2022/04/08 02:26:52;;;;;;;39.85;27.20;;;27.60;76.00;;;;;;4210752;28;20528;-72
2022/04/08 02:28:59;;;;;;;37.95;28.30;;;27.50;76.40;;;;;;4206526;28;20068;-72
2022/04/08 02:31:07;;;;;;;35.75;27.63;;;27.60;76.00;;;;;;4215860;28;20040;-71
2022/04/08 02:33:12;;;;;;;34.72;27.42;;;27.60;74.80;;;;;;4213733;28;20040;-72
2022/04/08 02:35:20;;;;;;;30.77;25.90;;;27.50;75.40;;;;;;4216042;28;20055;-73
2022/04/08 02:37:31;;;;;;;35.08;26.85;;;27.60;74.20;;;;;;4213460;28;20462;-71
2022/04/08 02:39:36;;;;;;;32.08;27.08;;;27.50;74.60;;;;;;4213107;28;20051;-71
2022/04/08 02:41:47;;;;;;;29.98;25.75;;;27.40;74.80;;;;;;4213877;28;20119;-71
2022/04/08 02:43:58;;;;;;;37.42;26.58;;;27.50;74.20;;;;;;4198297;28;20471;-71
2022/04/08 02:46:04;;;;;;;32.92;25.35;;;27.60;73.30;;;;;;4210663;28;20085;-71
2022/04/08 02:48:20;;;;;;;33.05;25.13;;;27.60;73.60;;;;;;4213310;28;20393;-71
2022/04/08 02:50:27;;;;;;;30.90;25.10;;;27.60;72.60;;;;;;4214650;28;20878;-71
2022/04/08 02:52:33;;;;;;;32.83;24.63;;;27.70;72.80;;;;;;4213567;28;20089;-72
2022/04/08 02:54:38;;;;;;;29.00;25.25;;;27.70;72.70;;;;;;4214294;28;20044;-69
2022/04/08 02:56:44;;;;;;;31.50;25.00;;;27.70;72.30;;;;;;4214265;28;20134;-70
2022/04/08 02:58:51;;;;;;;30.65;24.85;;;27.80;72.40;;;;;;4214248;28;20044;-67
2022/04/08 03:00:59;;;;;;;36.03;25.08;;;27.90;72.90;;;;;;4213647;28;20051;-71
2022/04/08 03:03:05;;;;;;;28.90;23.73;;;27.90;72.80;;;;;;4200686;28;20186;-71
2022/04/08 03:05:10;;;;;;;28.35;24.40;;;28.00;72.40;;;;;;4205552;28;20044;-71
2022/04/08 03:07:16;;;;;;;30.38;23.77;;;28.00;72.30;;;;;;4204930;28;20047;-72
2022/04/08 03:09:21;;;;;;;32.10;23.15;;;28.10;72.70;;;;;;4207662;28;20105;-71
2022/04/08 03:11:26;;;;;;;27.90;23.30;;;28.10;72.30;;;;;;4209384;28;20070;-71
2022/04/08 03:13:33;;;;;;;28.52;23.48;;;28.10;71.50;;;;;;4209301;28;20871;-71
2022/04/08 03:15:41;;;;;;;29.80;24.40;;;28.20;72.00;;;;;;4208640;28;20123;-72
2022/04/08 03:17:46;;;;;;;29.42;23.20;;;28.20;72.50;;;;;;4208710;28;20169;-71
2022/04/08 03:19:53;;;;;;;29.98;23.90;;;28.30;72.70;;;;;;4173218;28;20049;-72
2022/04/08 03:22:00;;;;;;;29.98;23.02;;;28.30;72.60;;;;;;4209516;28;20044;-71
2022/04/08 03:24:05;;;;;;;28.17;22.50;;;28.30;71.90;;;;;;4208779;28;20790;-71
2022/04/08 03:26:12;;;;;;;28.30;22.92;;;28.40;72.40;;;;;;4209709;28;20093;-71
2022/04/08 03:28:20;;;;;;;29.40;22.88;;;28.40;72.00;;;;;;4209602;28;20093;-71
2022/04/08 03:30:27;;;;;;;27.15;22.67;;;28.50;71.60;;;;;;4209825;28;20043;-72
2022/04/08 03:32:35;;;;;;;27.38;22.55;;;28.50;71.20;;;;;;4209721;28;20158;-71
2022/04/08 03:34:42;;;;;;;29.08;22.33;;;28.60;72.10;;;;;;4210005;28;20559;-71
2022/04/08 03:36:47;;;;;;;26.58;22.35;;;28.80;72.30;;;;;;4209076;28;20075;-72
2022/04/08 03:38:54;;;;;;;30.60;22.33;;;28.80;71.50;;;;;;4208927;28;20502;-70
2022/04/08 03:41:01;;;;;;;25.70;21.15;;;28.90;71.50;;;;;;4202230;28;20048;-71
2022/04/08 03:43:06;;;;;;;27.48;20.75;;;28.90;71.60;;;;;;4209656;28;20056;-71
2022/04/08 03:45:14;;;;;;;31.98;21.23;;;28.90;71.30;;;;;;4209731;28;20363;-71
2022/04/08 03:47:19;;;;;;;26.55;21.70;;;28.90;71.10;;;;;;4209900;28;20513;-72
2022/04/08 03:49:26;;;;;;;25.75;20.90;;;29.00;71.30;;;;;;4209697;28;20090;-72
2022/04/08 03:51:37;;;;;;;26.27;20.13;;;29.00;71.40;;;;;;4209938;28;20050;-71
2022/04/08 03:53:44;;;;;;;28.35;20.38;;;29.00;70.80;;;;;;4209362;28;20141;-71
2022/04/08 03:55:49;;;;;;;24.17;20.27;;;29.00;70.10;;;;;;4208731;28;20437;-71
2022/04/08 03:57:55;;;;;;;24.33;19.02;;;29.00;70.00;;;;;;4208923;28;20578;-72
2022/04/08 04:00:03;;;;;;;23.45;17.98;;;29.10;70.10;;;;;;4209000;28;20048;-72
2022/04/08 04:02:09;;;;;;;22.05;19.67;;;29.10;68.80;;;;;;4208215;28;20040;-71
2022/04/08 04:04:16;;;;;;;25.63;19.35;;;29.20;68.40;;;;;;4206738;28;20046;-72
2022/04/08 04:06:21;;;;;;;25.63;19.42;;;29.20;68.00;;;;;;4207913;28;20047;-71
2022/04/08 04:08:27;;;;;;;28.33;19.35;;;29.20;68.40;;;;;;4208657;28;20444;-71
2022/04/08 04:10:32;;;;;;;23.15;19.40;;;29.30;69.20;;;;;;4207268;28;20048;-72
2022/04/08 04:12:39;;;;;;;22.40;19.15;;;29.30;67.40;;;;;;4207448;28;20089;-71
2022/04/08 04:14:44;;;;;;;22.17;18.77;;;29.30;67.60;;;;;;4208406;28;20418;-71
2022/04/08 04:16:51;;;;;;;25.27;18.75;;;29.30;66.80;;;;;;4171862;28;20072;-71
2022/04/08 04:18:58;;;;;;;22.77;18.55;;;29.40;67.20;;;;;;4206808;28;20477;-71
2022/04/08 04:21:03;;;;;;;21.05;17.83;;;29.40;67.20;;;;;;4201844;28;20044;-71
2022/04/08 04:23:11;;;;;;;23.25;18.17;;;29.50;67.20;;;;;;4200963;28;20113;-71
2022/04/08 04:25:17;;;;;;;23.70;18.65;;;29.50;67.40;;;;;;4202074;28;20046;-71
2022/04/08 04:27:23;;;;;;;24.55;18.15;;;29.60;67.50;;;;;;4206790;28;20139;-71
2022/04/08 04:29:27;;;;;;;23.45;17.85;;;29.60;68.00;;;;;;4207146;28;20040;-71
2022/04/08 04:31:34;;;;;;;26.20;18.08;;;29.70;68.20;;;;;;4208068;28;20081;-72
2022/04/08 04:33:39;;;;;;;23.88;17.63;;;29.60;66.90;;;;;;4208229;28;20124;-72
2022/04/08 04:35:44;;;;;;;26.83;17.30;;;29.60;66.30;;;;;;4199750;28;20063;-71
2022/04/08 04:37:51;;;;;;;22.60;17.35;;;29.60;66.30;;;;;;4199817;28;20055;-71
2022/04/08 04:39:56;;;;;;;25.70;17.83;;;29.60;66.50;;;;;;4202397;28;20063;-71
2022/04/08 04:42:02;;;;;;;25.02;18.30;;;29.70;66.60;;;;;;4207874;28;20079;-71
2022/04/08 04:44:09;;;;;;;22.33;17.92;;;29.70;65.40;;;;;;4207160;28;20101;-69
2022/04/08 04:46:14;;;;;;;20.23;17.98;;;29.70;64.20;;;;;;4201738;28;20047;-69
2022/04/08 04:48:22;;;;;;;26.30;18.13;;;29.70;65.20;;;;;;4206350;28;20437;-70
2022/04/08 04:50:27;;;;;;;24.45;17.92;;;29.70;65.40;;;;;;4205589;28;20060;-70
2022/04/08 04:52:32;;;;;;;25.20;18.65;;;29.80;65.80;;;;;;4205457;28;20440;-70
2022/04/08 04:54:40;;;;;;;23.13;18.15;;;29.90;66.40;;;;;;4206343;28;20047;-69
2022/04/08 04:56:48;;;;;;;23.90;18.17;;;29.90;65.60;;;;;;4200798;28;20054;-70
2022/04/08 04:58:52;;;;;;;24.17;17.13;;;29.90;65.40;;;;;;4197781;28;20149;-69
2022/04/08 05:01:02;;;;;;;22.02;18.35;;;29.80;64.50;;;;;;4207448;28;20060;-70
2022/04/08 05:03:09;;;;;;;25.92;18.40;;;29.80;66.60;;;;;;4205835;28;20119;-70
2022/04/08 05:05:14;;;;;;;25.73;19.40;;;29.90;65.70;;;;;;4199309;28;20048;-70
2022/04/08 05:07:23;;;;;;;25.80;19.13;;;30.00;66.70;;;;;;4206761;28;20052;-68
2022/04/08 05:09:28;;;;;;;26.88;18.65;;;30.00;66.60;;;;;;4200225;28;20105;-68
2022/04/08 05:11:33;;;;;;;22.92;18.88;;;30.10;66.20;;;;;;4206130;28;20121;-70
2022/04/08 05:13:40;;;;;;;23.10;18.45;;;30.00;65.70;;;;;;4187435;28;20063;-70
2022/04/08 05:15:48;;;;;;;22.83;18.15;;;30.00;65.10;;;;;;4206754;28;20051;-69
2022/04/08 05:17:53;;;;;;;23.48;18.40;;;29.90;65.20;;;;;;4206155;28;20095;-67
2022/04/08 05:19:58;;;;;;;23.60;18.90;;;30.00;65.30;;;;;;4206469;28;20044;-68
2022/04/08 05:22:03;;;;;;;23.92;18.60;;;30.00;66.20;;;;;;4219309;28;20502;-69
2022/04/08 05:24:08;;;;;;;23.33;18.60;;;30.10;65.70;;;;;;4201035;28;20073;-69
2022/04/08 05:26:15;;;;;;;23.60;18.45;;;30.20;65.90;;;;;;4206456;28;20105;-69
2022/04/08 05:28:22;;;;;;;22.35;18.85;;;30.20;65.30;;;;;;4205786;28;20048;-71
2022/04/08 05:30:27;;;;;;;21.73;18.63;;;30.00;65.00;;;;;;4206699;28;20139;-69
2022/04/08 05:32:35;;;;;;;23.15;18.33;;;30.00;65.40;;;;;;4206559;28;20048;-70
2022/04/08 05:34:42;;;;;;;26.40;18.67;;;30.00;65.10;;;;;;4206788;28;20048;-70
2022/04/08 05:36:47;;;;;;;28.23;18.20;;;30.10;65.00;;;;;;4206806;28;20439;-69
2022/04/08 05:38:52;;;;;;;22.80;18.52;;;30.00;64.40;;;;;;4206748;28;20032;-70
2022/04/08 05:40:59;;;;;;;21.42;18.42;;;30.10;64.90;;;;;;4206107;28;20040;-69
2022/04/08 05:43:04;;;;;;;21.15;18.73;;;30.00;64.80;;;;;;4205185;28;20494;-70
2022/04/08 05:45:11;;;;;;;23.85;18.02;;;30.10;65.30;;;;;;4204930;28;20044;-71
2022/04/08 05:47:18;;;;;;;23.40;17.98;;;30.30;64.20;;;;;;4206383;28;20063;-70
2022/04/08 05:49:24;;;;;;;21.85;18.58;;;30.20;64.70;;;;;;4206498;28;20105;-70
2022/04/08 05:51:30;;;;;;;23.63;18.05;;;30.30;64.60;;;;;;4206630;28;20075;-70
2022/04/08 05:53:56;;;;;;;;;;;30.30;64.20;;;;;;4206789;28;20059;-70
2022/04/08 05:56:04;;;;;;;23.45;17.92;;;30.30;63.80;;;;;;4206168;28;19946;-70
2022/04/08 05:58:11;;;;;;;23.48;17.55;;;30.20;64.60;;;;;;4170457;28;20045;-69
2022/04/08 06:00:19;;;;;;;23.25;18.65;;;30.20;64.10;;;;;;4205454;28;20040;-70
2022/04/08 06:02:29;;;;;;;23.83;18.23;;;30.20;65.40;;;;;;4205296;28;20042;-71
2022/04/08 06:04:34;;;;;;;26.85;18.67;;;30.30;64.20;;;;;;4204736;28;20040;-70
2022/04/08 06:06:43;;;;;;;23.60;18.33;;;30.20;65.10;;;;;;4206311;28;20044;-70
2022/04/08 06:08:48;;;;;;;24.30;18.00;;;30.40;65.10;;;;;;4206409;28;20104;-70
2022/04/08 06:10:55;;;;;;;26.00;18.27;;;30.40;65.20;;;;;;4204204;28;20052;-70
2022/04/08 06:13:02;;;;;;;25.20;18.50;;;30.40;66.40;;;;;;4206484;28;20072;-70
2022/04/08 06:15:07;;;;;;;25.67;17.30;;;30.50;64.70;;;;;;4205121;28;20134;-70
2022/04/08 06:17:15;;;;;;;22.88;17.25;;;30.70;65.40;;;;;;4206077;28;20725;-70
2022/04/08 06:19:22;;;;;;;20.95;17.73;;;30.80;64.80;;;;;;4206082;28;20055;-69
2022/04/08 06:21:27;;;;;;;21.83;16.63;;;30.80;64.30;;;;;;4206077;28;20050;-69
2022/04/08 06:23:33;;;;;;;21.42;16.73;;;30.80;63.90;;;;;;4169711;28;20044;-68
2022/04/08 06:25:41;;;;;;;24.33;17.80;;;30.80;63.90;;;;;;4205842;28;20048;-69
2022/04/08 06:27:55;;;;;;;20.60;16.70;;;30.90;64.10;;;;;;4206076;28;20130;-69
2022/04/08 06:30:02;;;;;;;23.30;17.38;;;30.90;64.80;;;;;;4198484;28;20404;-69
2022/04/08 06:32:09;;;;;;;28.92;18.48;;;30.80;63.60;;;;;;4205842;28;20174;-69
2022/04/08 06:34:14;;;;;;;28.17;17.20;;;30.70;63.50;;;;;;4204758;28;20748;-69
2022/04/08 06:36:22;;;;;;;19.30;17.00;;;30.70;64.40;;;;;;4201924;28;20052;-69
2022/04/08 06:38:28;;;;;;;23.40;16.67;;;30.70;64.10;;;;;;4205947;28;20040;-69
2022/04/08 06:40:41;;;;;;;26.08;16.83;;;30.60;62.70;;;;;;4205918;28;20732;-69
2022/04/08 06:42:48;;;;;;;21.35;17.15;;;30.70;64.20;;;;;;4205982;28;20394;-68
2022/04/08 06:44:55;;;;;;;22.13;17.58;;;30.80;64.10;;;;;;4199300;28;20050;-69
2022/04/08 06:47:00;;;;;;;21.80;17.67;;;30.90;64.10;;;;;;4197924;28;20084;-69
2022/04/08 06:49:06;;;;;;;19.50;16.38;;;31.00;64.10;;;;;;4205906;28;20048;-69
2022/04/08 06:51:14;;;;;;;21.83;17.10;;;31.00;63.30;;;;;;4204067;28;20109;-69
2022/04/08 06:53:19;;;;;;;23.35;17.40;;;31.20;63.10;;;;;;4200087;28;20052;-69
2022/04/08 06:55:26;;;;;;;21.48;17.60;;;31.20;63.10;;;;;;4204696;28;20051;-69
2022/04/08 06:57:33;;;;;;;24.40;17.83;;;31.20;63.50;;;;;;4205805;28;20156;-69
2022/04/08 06:59:40;;;;;;;22.02;17.27;;;31.20;64.20;;;;;;4206041;28;20707;-69
2022/04/08 07:01:46;;;;;;;21.83;17.35;;;31.10;63.00;;;;;;4186008;28;20420;-68
2022/04/08 07:03:56;;;;;;;24.17;17.40;;;31.10;63.30;;;;;;4205806;28;20074;-69
2022/04/08 07:06:04;;;;;;;21.73;17.48;;;31.10;62.90;;;;;;4205940;28;20043;-69
2022/04/08 07:08:10;;;;;;;25.00;16.65;;;31.30;63.00;;;;;;4201422;28;20493;-70
2022/04/08 07:10:16;;;;;;;22.95;16.95;;;31.20;63.20;;;;;;4207413;28;20047;-69
2022/04/08 07:12:21;;;;;;;21.10;16.60;;;31.20;63.10;;;;;;4203766;28;20090;-69
2022/04/08 07:14:27;;;;;;;20.00;16.85;;;31.00;62.80;;;;;;4213949;28;20047;-70
2022/04/08 07:16:32;;;;;;;19.23;15.70;;;31.00;62.80;;;;;;4213896;28;20040;-69
2022/04/08 07:18:38;;;;;;;22.52;16.02;;;30.90;62.30;;;;;;4213581;28;20067;-69
2022/04/08 07:20:44;;;;;;;22.63;16.55;;;31.00;62.10;;;;;;4213792;28;20541;-70
2022/04/08 07:22:51;;;;;;;21.35;16.42;;;31.10;62.10;;;;;;4214040;28;20040;-70
2022/04/08 07:24:56;;;;;;;24.00;16.45;;;31.20;62.40;;;;;;4212455;28;20044;-69
2022/04/08 07:27:04;;;;;;;21.27;16.35;;;31.30;62.20;;;;;;4194088;28;20457;-70
2022/04/08 07:29:10;;;;;;;19.45;16.17;;;31.30;62.50;;;;;;4213369;28;20063;-70
2022/04/08 07:31:15;;;;;;;19.02;15.80;;;31.40;62.20;;;;;;4213816;28;20048;-71
2022/04/08 07:33:22;;;;;;;22.98;15.93;;;31.20;61.50;;;;;;4213010;28;20477;-70
2022/04/08 07:35:30;;;;;;;20.92;16.42;;;31.20;62.30;;;;;;4213298;28;20147;-70
2022/04/08 07:37:35;;;;;;;23.48;16.70;;;31.20;62.10;;;;;;4210733;28;20074;-69
2022/04/08 07:39:41;;;;;;;23.13;16.23;;;31.40;62.20;;;;;;4205783;28;20044;-70
2022/04/08 07:41:48;;;;;;;23.00;16.88;;;31.40;61.80;;;;;;4213457;28;20055;-68
2022/04/08 07:43:55;;;;;;;19.88;16.02;;;31.50;61.90;;;;;;4213377;28;20139;-69
2022/04/08 07:46:02;;;;;;;19.00;15.63;;;31.50;61.70;;;;;;4213017;28;20048;-69
2022/04/08 07:48:10;;;;;;;19.88;16.10;;;31.40;60.70;;;;;;4213509;28;20050;-69
2022/04/08 07:50:15;;;;;;;22.42;16.15;;;31.30;61.60;;;;;;4212880;28;20054;-71
2022/04/08 07:52:22;;;;;;;25.63;16.42;;;31.40;60.90;;;;;;4211339;28;20387;-70
2022/04/08 07:54:29;;;;;;;20.35;15.55;;;31.40;60.90;;;;;;4212514;28;20036;-70
2022/04/08 07:56:35;;;;;;;27.42;15.90;;;31.30;61.10;;;;;;4212671;28;20040;-70
2022/04/08 07:58:45;;;;;;;24.95;16.77;;;31.30;62.00;;;;;;4210096;28;20067;-71
2022/04/08 08:00:54;;;;;;;23.45;16.42;;;31.30;61.50;;;;;;4212682;28;20449;-71
2022/04/08 08:02:59;;;;;;;21.55;15.90;;;31.30;61.70;;;;;;4210157;28;20036;-71
2022/04/08 08:05:09;;;;;;;19.45;16.23;;;31.40;61.60;;;;;;4211950;28;20680;-71
2022/04/08 08:07:16;;;;;;;19.73;16.40;;;31.50;62.50;;;;;;4211356;28;20091;-71
2022/04/08 08:09:20;;;;;;;23.58;17.45;;;31.50;62.00;;;;;;4212871;28;20051;-71
2022/04/08 08:11:48;;;;;;;22.55;15.95;;;31.60;61.90;;;;;;4192568;28;20085;-72
2022/04/08 08:13:55;;;;;;;23.45;16.23;;;31.70;61.70;;;;;;4193193;28;20044;-72
2022/04/08 08:16:00;;;;;;;19.73;16.45;;;31.50;62.30;;;;;;4190405;28;20060;-72
2022/04/08 08:18:08;;;;;;;18.92;16.42;;;31.60;62.70;;;;;;4193169;28;20057;-72
2022/04/08 08:20:16;;;;;;;22.20;16.55;;;31.50;62.10;;;;;;4192684;28;20472;-72
2022/04/08 08:22:22;;;;;;;21.35;16.13;;;31.40;62.20;;;;;;4192700;28;20028;-70
2022/04/08 08:24:30;;;;;;;18.92;16.63;;;31.40;62.00;;;;;;4192939;28;20048;-70
2022/04/08 08:26:37;;;;;;;24.83;17.27;;;31.40;62.10;;;;;;4193023;28;20036;-72
2022/04/08 08:28:42;;;;;;;23.48;17.50;;;31.50;62.20;;;;;;4192951;28;20499;-71
2022/04/08 08:30:50;;;;;;;21.05;16.73;;;31.60;62.20;;;;;;4193005;28;20765;-70
2022/04/08 08:32:58;;;;;;;22.58;17.33;;;31.60;62.80;;;;;;4193143;28;20471;-72
2022/04/08 08:35:05;;;;;;;20.60;17.10;;;31.60;62.00;;;;;;4191337;28;20516;-73
2022/04/08 08:37:10;;;;;;;24.13;16.73;;;31.70;62.40;;;;;;4192891;28;20051;-71
2022/04/08 08:39:19;;;;;;;20.33;16.67;;;31.50;61.20;;;;;;4193143;28;20036;-71
2022/04/08 08:41:24;;;;;;;23.73;17.23;;;31.40;61.90;;;;;;4193115;28;20098;-72
2022/04/08 08:43:29;;;;;;;22.73;17.13;;;31.30;61.90;;;;;;4193396;28;20049;-72
2022/04/08 08:45:35;;;;;;;24.10;17.25;;;31.30;62.10;;;;;;4193390;28;20067;-72
2022/04/08 08:47:40;;;;;;;23.30;17.15;;;31.40;61.90;;;;;;4193247;28;20103;-73
2022/04/08 08:49:50;;;;;;;24.80;17.30;;;31.40;61.80;;;;;;4202605;28;20043;-71
2022/04/08 08:51:59;;;;;;;22.25;17.08;;;31.40;61.70;;;;;;4212109;28;20055;-70
2022/04/08 08:54:08;;;;;;;23.40;17.33;;;31.40;62.30;;;;;;4211413;28;20079;-69
2022/04/08 08:56:15;;;;;;;21.98;17.70;;;31.40;63.20;;;;;;4211289;28;20398;-71
2022/04/08 08:58:23;;;;;;;27.95;17.20;;;31.40;63.20;;;;;;4211279;28;20410;-71
2022/04/08 09:00:28;;;;;;;23.08;17.83;;;31.30;62.30;;;;;;4191851;28;20107;-68
2022/04/08 09:02:35;;;;;;;23.20;18.13;;;31.30;63.00;;;;;;4211644;28;20064;-70
2022/04/08 09:04:42;;;;;;;22.30;17.05;;;31.40;62.20;;;;;;4211795;28;20056;-70
2022/04/08 09:06:48;;;;;;;24.08;17.50;;;31.30;62.20;;;;;;4211732;28;20799;-70
2022/04/08 09:08:58;;;;;;;22.77;16.75;;;31.40;62.70;;;;;;4209961;28;20044;-70
2022/04/08 09:11:07;;;;;;;21.23;17.10;;;31.30;62.70;;;;;;4209419;28;20059;-70
2022/04/08 09:13:12;;;;;;;20.30;17.55;;;31.20;63.00;;;;;;4211129;28;20077;-70
2022/04/08 09:15:21;;;;;;;19.58;16.52;;;31.30;63.10;;;;;;4210885;28;20052;-71
2022/04/08 09:17:34;;;;;;;23.20;17.92;;;31.30;62.80;;;;;;4209918;28;20110;-70
2022/04/08 09:19:42;;;;;;;22.55;16.55;;;31.30;62.10;;;;;;4211136;28;20113;-70
2022/04/08 09:21:54;;;;;;;22.95;17.65;;;31.30;62.40;;;;;;4209332;28;20042;-70
2022/04/08 09:24:06;;;;;;;23.75;18.40;;;31.30;62.40;;;;;;4209081;28;20158;-70
2022/04/08 09:26:20;;;;;;;;;;;31.30;63.00;;;;;;4209851;28;20116;-69
2022/04/08 09:28:25;;;;;;;25.30;18.33;;;31.20;63.30;;;;;;4210935;28;19947;-71
2022/04/08 09:30:32;;;;;;;24.90;18.45;;;31.20;63.60;;;;;;4209450;28;20081;-70
2022/04/08 09:32:38;;;;;;;22.15;17.58;;;31.20;63.00;;;;;;4211387;28;20918;-71
2022/04/08 09:34:44;;;;;;;26.05;18.20;;;31.20;62.50;;;;;;4175739;28;20041;-71
2022/04/08 09:36:51;;;;;;;22.27;17.38;;;31.10;62.70;;;;;;4210460;28;20038;-71
2022/04/08 09:38:59;;;;;;;22.25;17.90;;;31.10;62.70;;;;;;4211021;28;20109;-72
2022/04/08 09:41:10;;;;;;;23.58;17.77;;;31.10;62.90;;;;;;4209540;28;20042;-72
2022/04/08 09:43:16;;;;;;;22.88;18.13;;;31.10;62.40;;;;;;4211674;28;20068;-70
2022/04/08 09:45:32;;;;;;;24.10;18.20;;;31.10;62.70;;;;;;4210596;28;20040;-69
2022/04/08 09:47:39;;;;;;;25.95;19.10;;;31.00;63.20;;;;;;4207540;28;20064;-69
2022/04/08 09:49:48;;;;;;;20.90;18.02;;;31.10;63.60;;;;;;4208892;28;20056;-70
2022/04/08 09:51:54;;;;;;;22.90;18.35;;;31.00;62.90;;;;;;4210083;28;20040;-69
2022/04/08 09:54:02;;;;;;;45.13;29.17;;;31.00;63.60;;;;;;4210851;28;20040;-70
2022/04/08 09:56:16;;;;;;;30.85;22.20;;;31.10;64.00;;;;;;4210657;28;20135;-72
2022/04/08 09:58:21;;;;;;;27.25;19.05;;;31.00;64.40;;;;;;4209976;28;20067;-67
2022/04/08 10:00:30;;;;;;;27.02;19.05;;;31.00;63.30;;;;;;4209209;28;20047;-68
2022/04/08 10:02:39;;;;;;;26.50;18.95;;;31.00;63.50;;;;;;4207708;28;20062;-69
2022/04/08 10:04:46;;;;;;;23.58;18.23;;;31.00;63.60;;;;;;4211128;28;20076;-71
2022/04/08 10:06:57;;;;;;;24.55;17.42;;;31.00;63.30;;;;;;4208029;28;20032;-72
2022/04/08 10:09:03;;;;;;;36.58;23.38;;;31.00;63.60;;;;;;4209726;28;20517;-72
2022/04/08 10:11:18;;;;;;;26.27;20.52;;;31.00;63.30;;;;;;4198845;28;20156;-72
2022/04/08 10:13:53;;;;;;;28.75;20.55;;;31.00;63.30;;;;;;4202416;28;20044;-71
2022/04/08 10:16:22;;;;;;;24.17;18.13;;;31.00;62.60;;;;;;4206228;28;20051;-72
2022/04/08 10:18:38;;;;;;;24.60;17.85;;;30.90;62.50;;;;;;4204913;28;20470;-71
2022/04/08 10:20:45;;;;;;;21.88;18.20;;;30.90;63.20;;;;;;4202848;28;20052;-70
2022/04/08 10:22:52;;;;;;;23.38;18.70;;;30.80;63.50;;;;;;4204348;28;20047;-71
2022/04/08 10:25:01;;;;;;;22.98;18.13;;;30.80;63.70;;;;;;4184959;28;20082;-71
2022/04/08 10:27:10;;;;;;;25.77;18.85;;;30.80;64.10;;;;;;4195218;28;20402;-70
2022/04/08 10:29:15;;;;;;;31.17;19.63;;;30.80;62.50;;;;;;4200998;28;20072;-72
2022/04/08 10:31:26;;;;;;;31.80;22.73;;;30.70;63.50;;;;;;4205946;28;20056;-71
2022/04/08 10:33:31;;;;;;;28.58;22.10;;;30.80;64.20;;;;;;4203692;28;20495;-71
2022/04/08 10:35:37;;;;;;;33.05;24.17;;;30.80;64.30;;;;;;4207085;28;20147;-71
2022/04/08 10:37:57;;;;;;;34.80;24.00;;;30.70;63.90;;;;;;4211310;28;20678;-70
2022/04/08 10:40:02;;;;;;;29.00;21.83;;;30.70;64.60;;;;;;4205426;28;20043;-69
2022/04/08 10:42:20;;;;;;;28.30;22.80;;;30.70;64.20;;;;;;4211797;28;20060;-71
2022/04/08 10:44:38;;;;;;;29.73;23.02;;;30.60;65.00;;;;;;4212491;28;20043;-70
2022/04/08 10:46:53;;;;;;;36.35;22.75;;;30.60;66.30;;;;;;4211969;28;20073;-71